createdAt,value
2023-11-12T00:00:16.263Z,99070.19
2023-11-12T00:05:21.011Z,99064.75
2023-11-12T00:10:24.746Z,99059.81
2023-11-12T00:15:28.457Z,99052.38
2023-11-12T00:20:31.965Z,99060.13
2023-11-12T00:25:36.046Z,99065.06
2023-11-12T00:30:39.701Z,99080.38
2023-11-12T00:35:43.505Z,99082.84
2023-11-12T00:40:48.010Z,99097.16
2023-11-12T00:45:59.512Z,99095.16
2023-11-12T00:51:03.463Z,99098.94
2023-11-12T00:56:09.196Z,99118.50
2023-11-12T01:01:15.495Z,99121.47
2023-11-12T01:06:19.244Z,99123.59
2023-11-12T01:11:22.952Z,99129.69
2023-11-12T01:16:27.196Z,99130.84
2023-11-12T01:21:30.862Z,99143.19
2023-11-12T01:26:35.244Z,99136.59
2023-11-12T01:31:38.860Z,99141.38
2023-11-12T01:36:42.693Z,99146.28
2023-11-12T01:41:46.406Z,99148.38
2023-11-12T01:46:52.646Z,99143.44
2023-11-12T01:51:56.290Z,99138.66
2023-11-12T01:57:01.769Z,99145.19
2023-11-12T02:02:06.558Z,99147.47
2023-11-12T02:07:10.190Z,99153.22
2023-11-12T02:12:14.712Z,99163.91
2023-11-12T02:17:18.490Z,99157.16
2023-11-12T02:22:22.048Z,99148.72
2023-11-12T02:27:25.609Z,99149.22
2023-11-12T02:32:36.032Z,99145.25
2023-11-12T02:37:40.054Z,99150.16
2023-11-12T02:42:44.608Z,99146.72
2023-11-12T02:47:48.642Z,99151.97
2023-11-12T02:52:55.011Z,99163.34
2023-11-12T02:57:59.666Z,99167.13
2023-11-12T03:03:03.979Z,99177.47
2023-11-12T03:08:07.900Z,99174.34
2023-11-12T03:13:11.531Z,99176.16
2023-11-12T03:18:15.377Z,99180.88
2023-11-12T03:23:19.200Z,99192.41
2023-11-12T03:28:22.751Z,99195.47
2023-11-12T03:33:29.073Z,99204.16
2023-11-12T03:38:33.138Z,99193.25
2023-11-12T03:43:36.775Z,99206.84
2023-11-12T03:48:40.515Z,99201.09
2023-11-12T03:53:43.982Z,99212.56
2023-11-12T03:58:47.832Z,99215.06
2023-11-12T04:03:53.207Z,99212.88
2023-11-12T04:08:57.049Z,99223.41
2023-11-12T04:14:00.704Z,99220.78
2023-11-12T04:19:05.013Z,99225.88
2023-11-12T04:24:09.584Z,99234.75
2023-11-12T04:29:14.569Z,99242.63
2023-11-12T04:34:18.184Z,99241.81
2023-11-12T04:39:21.938Z,99248.06
2023-11-12T04:44:26.455Z,99256.78
2023-11-12T04:49:30.180Z,99261.66
2023-11-12T04:54:34.134Z,99263.75
2023-11-12T04:59:42.164Z,99265.03
2023-11-12T05:04:46.001Z,99279.13
2023-11-12T05:09:49.793Z,99282.63
2023-11-12T05:14:53.419Z,99297.09
2023-11-12T05:19:57.246Z,99299.88
2023-11-12T05:25:01.069Z,99294.91
2023-11-12T05:30:05.222Z,99300.47
2023-11-12T05:35:09.942Z,99304.91
2023-11-12T05:40:13.885Z,99309.34
2023-11-12T05:45:19.196Z,99311.97
2023-11-12T05:50:24.401Z,99304.75
2023-11-12T05:55:29.695Z,99326.78
2023-11-12T06:00:33.729Z,99314.75
2023-11-12T06:05:37.507Z,99334.94
2023-11-12T06:10:44.425Z,99337.06
2023-11-12T06:15:48.229Z,99337.06
2023-11-12T06:20:52.010Z,99351.69
2023-11-12T06:25:55.842Z,99347.97
2023-11-12T06:30:59.383Z,99364.13
2023-11-12T06:36:03.198Z,99365.19
2023-11-12T06:41:09.852Z,99376.63
2023-11-12T06:46:13.636Z,99376.75
2023-11-12T06:51:25.097Z,99388.75
2023-11-12T06:56:36.605Z,99380.34
2023-11-12T07:01:40.372Z,99382.56
2023-11-12T07:06:57.139Z,99386.88
2023-11-12T07:12:08.571Z,99390.59
2023-11-12T07:17:15.421Z,99392.19
2023-11-12T07:22:19.947Z,99397.97
2023-11-12T07:27:24.649Z,99385.94
2023-11-12T07:32:28.344Z,99411.34
2023-11-12T07:37:32.003Z,99404.59
2023-11-12T07:42:35.962Z,99408.56
2023-11-12T07:47:40.228Z,99411.16
2023-11-12T07:52:44.155Z,99425.84
2023-11-12T07:57:48.372Z,99422.06
2023-11-12T08:02:53.072Z,99446.47
2023-11-12T08:07:56.997Z,99449.97
2023-11-12T08:13:00.744Z,99452.91
2023-11-12T08:18:06.618Z,99459.53
2023-11-12T08:23:10.459Z,99462.00
2023-11-12T08:28:14.361Z,99463.00
2023-11-12T08:33:18.632Z,99475.38
2023-11-12T08:38:22.438Z,99484.16
2023-11-12T08:43:26.032Z,99476.94
2023-11-12T08:48:33.147Z,99489.66
2023-11-12T08:53:38.363Z,99492.63
2023-11-12T08:58:42.111Z,99489.50
2023-11-12T09:03:45.774Z,99489.34
2023-11-12T09:08:49.370Z,99482.03
2023-11-12T09:13:52.993Z,99486.50
2023-11-12T09:18:57.188Z,99494.41
2023-11-12T09:24:01.357Z,99493.53
2023-11-12T09:29:05.171Z,99485.75
2023-11-12T09:34:08.886Z,99474.78
2023-11-12T09:39:14.383Z,99486.34
2023-11-12T09:44:35.434Z,99488.66
2023-11-12T09:49:43.867Z,99490.81
2023-11-12T09:54:48.607Z,99480.41
2023-11-12T09:59:53.172Z,99478.97
2023-11-12T10:05:02.137Z,99468.06
2023-11-12T10:10:25.703Z,99472.34
2023-11-12T10:15:34.948Z,99463.91
2023-11-12T10:20:41.521Z,99473.41
2023-11-12T10:25:49.712Z,99465.97
2023-11-12T10:30:55.167Z,99471.66
2023-11-12T10:36:10.206Z,99484.09
2023-11-12T10:41:14.042Z,99483.53
2023-11-12T10:46:17.889Z,99485.38
2023-11-12T10:51:21.797Z,99487.81
2023-11-12T10:56:28.484Z,99489.28
2023-11-12T11:01:35.483Z,99486.50
2023-11-12T11:06:42.345Z,99493.28
2023-11-12T11:11:50.497Z,99496.59
2023-11-12T11:16:54.984Z,99506.22
2023-11-12T11:22:30.852Z,99504.41
2023-11-12T11:27:34.751Z,99515.59
2023-11-12T11:32:38.679Z,99514.16
2023-11-12T11:38:11.466Z,99513.84
2023-11-12T11:43:24.631Z,99534.22
2023-11-12T11:48:28.975Z,99527.28
2023-11-12T11:53:33.281Z,99519.97
2023-11-12T11:58:52.860Z,99521.41
2023-11-12T12:04:07.198Z,99511.94
2023-11-12T12:09:18.052Z,99517.53
2023-11-12T12:14:25.677Z,99514.72
2023-11-12T12:19:29.436Z,99515.88
2023-11-12T12:29:39.432Z,99513.03
2023-11-12T12:34:46.315Z,99523.13
2023-11-12T12:39:54.672Z,99533.53
2023-11-12T12:44:59.904Z,99532.19
2023-11-12T12:50:17.181Z,99529.88
2023-11-12T12:55:22.678Z,99521.09
2023-11-12T13:00:26.790Z,99518.56
2023-11-12T13:05:30.418Z,99525.66
2023-11-12T13:10:35.333Z,99529.63
2023-11-12T13:15:39.156Z,99522.34
2023-11-12T13:20:44.124Z,99535.44
2023-11-12T13:25:51.164Z,99523.53
2023-11-12T13:30:55.420Z,99529.19
2023-11-12T13:36:01.273Z,99530.38
2023-11-12T13:41:05.408Z,99542.13
2023-11-12T13:46:09.113Z,99545.00
2023-11-12T13:51:15.642Z,99551.44
2023-11-12T13:56:19.341Z,99560.91
2023-11-12T14:01:24.923Z,99552.81
2023-11-12T14:06:28.561Z,99566.75
2023-11-12T14:11:32.080Z,99562.78
2023-11-12T14:16:39.004Z,99571.41
2023-11-12T14:21:46.526Z,99557.38
2023-11-12T14:26:51.177Z,99567.81
2023-11-12T14:31:54.816Z,99582.19
2023-11-12T14:36:58.886Z,99586.53
2023-11-12T14:42:04.430Z,99584.53
2023-11-12T14:47:07.998Z,99593.63
2023-11-12T14:52:12.565Z,99592.59
2023-11-12T14:57:17.864Z,99585.28
2023-11-12T15:02:21.860Z,99600.03
2023-11-12T15:07:25.786Z,99602.69
2023-11-12T15:12:30.720Z,99598.44
2023-11-12T15:17:34.328Z,99604.81
2023-11-12T15:22:38.714Z,99607.06
2023-11-12T15:27:46.587Z,99619.06
2023-11-12T15:32:50.472Z,99623.66
2023-11-12T15:37:54.284Z,99628.44
2023-11-12T15:42:58.491Z,99626.69
2023-11-12T15:48:02.107Z,99628.94
2023-11-12T15:53:06.136Z,99628.84
2023-11-12T15:58:12.369Z,99631.53
2023-11-12T16:03:18.860Z,99629.91
2023-11-12T16:08:22.943Z,99641.16
2023-11-12T16:13:26.896Z,99647.84
2023-11-12T16:18:30.341Z,99658.56
2023-11-12T16:23:34.304Z,99647.09
2023-11-12T16:28:39.544Z,99651.44
2023-11-12T16:33:43.352Z,99659.72
2023-11-12T16:38:46.911Z,99659.34
2023-11-12T16:43:50.648Z,99661.13
2023-11-12T16:48:54.968Z,99657.25
2023-11-12T16:53:58.538Z,99659.84
2023-11-12T16:59:02.034Z,99665.81
2023-11-12T17:04:06.145Z,99672.44
2023-11-12T17:09:13.417Z,99680.84
2023-11-12T17:14:18.286Z,99680.44
2023-11-12T17:19:22.379Z,99681.69
2023-11-12T17:24:25.932Z,99679.72
2023-11-12T17:29:29.564Z,99686.22
2023-11-12T17:34:33.237Z,99682.31
2023-11-12T17:39:37.148Z,99685.63
2023-11-12T17:44:43.102Z,99688.75
2023-11-12T17:49:56.470Z,99693.72
2023-11-12T17:55:00.250Z,99702.69
2023-11-12T18:00:07.372Z,99713.72
2023-11-12T18:05:11.346Z,99720.19
2023-11-12T18:10:15.206Z,99722.34
2023-11-12T18:15:20.517Z,99725.78
2023-11-12T18:20:25.207Z,99733.47
2023-11-12T18:25:28.682Z,99733.78
2023-11-12T18:30:32.698Z,99741.47
2023-11-12T18:35:36.934Z,99749.97
2023-11-12T18:40:43.259Z,99753.06
2023-11-12T18:45:46.830Z,99746.09
2023-11-12T18:50:52.120Z,99738.66
2023-11-12T18:55:56.215Z,99741.19
2023-11-12T19:01:00.768Z,99741.56
2023-11-12T19:06:04.584Z,99750.50
2023-11-12T19:11:08.602Z,99753.38
2023-11-12T19:16:12.439Z,99756.72
2023-11-12T19:21:16.427Z,99766.16
2023-11-12T19:26:23.564Z,99768.16
2023-11-12T19:31:33.163Z,99783.88
2023-11-12T19:36:41.514Z,99802.97
2023-11-12T19:41:45.297Z,99791.38
2023-11-12T19:46:49.205Z,99793.06
2023-11-12T19:51:52.756Z,99802.09
2023-11-12T19:56:58.779Z,99800.22
2023-11-12T20:02:07.625Z,99809.38
2023-11-12T20:07:11.694Z,99805.59
2023-11-12T20:12:15.554Z,99806.88
2023-11-12T20:17:19.204Z,99807.09
2023-11-12T20:22:22.959Z,99811.66
2023-11-12T20:27:26.633Z,99811.03
2023-11-12T20:32:30.301Z,99808.19
2023-11-12T20:37:34.029Z,99822.69
2023-11-12T20:42:38.884Z,99824.13
2023-11-12T20:47:42.582Z,99816.38
2023-11-12T20:52:46.975Z,99823.63
2023-11-12T20:57:53.477Z,99831.00
2023-11-12T21:02:57.369Z,99826.03
2023-11-12T21:08:01.368Z,99830.31
2023-11-12T21:13:04.908Z,99832.13
2023-11-12T21:18:12.709Z,99827.72
2023-11-12T21:23:16.343Z,99813.91
2023-11-12T21:28:21.599Z,99808.91
2023-11-12T21:33:25.433Z,99813.66
2023-11-12T21:38:28.996Z,99803.88
2023-11-12T21:43:33.865Z,99821.50
2023-11-12T21:48:38.975Z,99816.28
2023-11-12T21:53:42.763Z,99814.72
2023-11-12T21:58:46.875Z,99813.66
2023-11-12T22:03:51.513Z,99834.88
2023-11-12T22:08:56.357Z,99833.44
2023-11-12T22:14:00.770Z,99837.72
2023-11-12T22:19:08.978Z,99829.97
2023-11-12T22:24:12.710Z,99824.97
2023-11-12T22:29:16.207Z,99820.94
2023-11-12T22:34:22.434Z,99822.59
2023-11-12T22:39:26.338Z,99829.72
2023-11-12T22:44:30.320Z,99828.31
2023-11-12T22:49:33.973Z,99831.50
2023-11-12T22:54:38.376Z,99829.97
2023-11-12T22:59:42.531Z,99843.19
2023-11-12T23:04:46.124Z,99825.69
2023-11-12T23:09:49.935Z,99838.66
2023-11-12T23:14:53.482Z,99837.69
2023-11-12T23:19:57.127Z,99825.09
2023-11-12T23:25:01.805Z,99835.56
2023-11-12T23:30:08.575Z,99833.31
2023-11-12T23:35:12.489Z,99834.84
2023-11-12T23:40:16.398Z,99834.72
2023-11-12T23:45:20.042Z,99825.28
2023-11-12T23:50:26.859Z,99830.75
2023-11-12T23:55:30.475Z,99825.63
